createdAt,value
2019-01-09T00:01:52.468Z,91.40
2019-01-09T00:03:45.297Z,91.38
2019-01-09T00:05:38.349Z,91.23
2019-01-09T00:07:32.575Z,91.11
2019-01-09T00:09:25.445Z,91.35
2019-01-09T00:11:18.786Z,91.28
2019-01-09T00:13:12.117Z,91.17
2019-01-09T00:15:05.667Z,91.18
2019-01-09T00:16:58.547Z,90.98
2019-01-09T00:18:51.567Z,91.15
2019-01-09T00:20:44.868Z,91.18
2019-01-09T00:22:37.839Z,91.20
2019-01-09T00:24:30.896Z,91.07
2019-01-09T00:26:24.039Z,91.18
2019-01-09T00:28:16.930Z,91.15
2019-01-09T00:30:10.053Z,91.25
2019-01-09T00:32:02.890Z,91.05
2019-01-09T00:33:56.066Z,90.78
2019-01-09T00:35:49.046Z,90.90
2019-01-09T00:37:41.912Z,91.19
2019-01-09T00:39:34.881Z,91.36
2019-01-09T00:41:27.750Z,90.91
2019-01-09T00:43:21.019Z,90.99
2019-01-09T00:45:14.226Z,91.03
2019-01-09T00:47:08.645Z,90.93
2019-01-09T00:49:01.885Z,90.92
2019-01-09T00:50:55.761Z,90.86
2019-01-09T00:52:48.877Z,90.81
2019-01-09T00:54:41.707Z,90.93
2019-01-09T00:56:34.754Z,90.84
2019-01-09T00:58:27.663Z,90.81
2019-01-09T01:00:21.369Z,90.76
2019-01-09T01:03:09.206Z,90.88
2019-01-09T01:06:25.088Z,90.63
2019-01-09T01:09:08.970Z,90.85
2019-01-09T01:11:55.320Z,90.94
2019-01-09T01:15:17.041Z,90.80
2019-01-09T01:17:59.652Z,91.02
2019-01-09T01:20:32.452Z,91.13
2019-01-09T01:23:24.232Z,90.95
2019-01-09T01:26:10.479Z,91.20
2019-01-09T01:28:13.960Z,91.21
2019-01-09T01:31:21.356Z,91.01
2019-01-09T01:33:54.140Z,90.82
2019-01-09T01:37:22.940Z,90.99
2019-01-09T01:40:25.213Z,91.04
2019-01-09T01:43:19.863Z,90.95
2019-01-09T01:46:39.983Z,90.92
2019-01-09T01:49:24.250Z,90.98
2019-01-09T01:51:53.433Z,91.06
2019-01-09T01:54:51.829Z,91.03
2019-01-09T01:57:42.957Z,90.98
2019-01-09T02:00:13.107Z,90.99
2019-01-09T02:03:13.600Z,91.30
2019-01-09T02:05:21.543Z,91.23
2019-01-09T02:08:10.677Z,91.09
2019-01-09T02:11:14.477Z,91.19
2019-01-09T02:14:09.280Z,91.14
2019-01-09T02:17:23.071Z,90.99
2019-01-09T02:19:38.838Z,90.92
2019-01-09T02:22:43.014Z,90.80
2019-01-09T02:25:37.364Z,90.83
2019-01-09T02:28:03.715Z,90.78
2019-01-09T02:30:54.475Z,90.59
2019-01-09T02:32:47.313Z,90.74
2019-01-09T02:34:40.245Z,90.76
2019-01-09T02:36:33.304Z,90.71
2019-01-09T02:38:26.381Z,90.40
2019-01-09T02:40:19.903Z,90.53
2019-01-09T02:42:13.063Z,90.74
2019-01-09T02:44:05.760Z,90.84
2019-01-09T02:45:58.423Z,90.55
2019-01-09T02:47:51.791Z,90.74
2019-01-09T02:49:45.072Z,90.92
2019-01-09T02:51:38.196Z,90.95
2019-01-09T02:53:31.290Z,90.98
2019-01-09T02:55:24.236Z,90.93
2019-01-09T02:57:17.086Z,90.90
2019-01-09T02:59:09.849Z,91.04
2019-01-09T03:01:02.679Z,91.03
2019-01-09T03:02:57.421Z,90.97
2019-01-09T03:04:50.340Z,90.98
2019-01-09T03:06:43.314Z,90.91
2019-01-09T03:08:36.844Z,90.90
2019-01-09T03:10:29.925Z,90.77
2019-01-09T03:12:23.724Z,90.89
2019-01-09T03:14:16.596Z,90.93
2019-01-09T03:16:11.031Z,90.80
2019-01-09T03:18:03.806Z,90.85
2019-01-09T03:19:57.446Z,90.83
2019-01-09T03:21:50.485Z,90.85
2019-01-09T03:23:43.536Z,90.82
2019-01-09T03:25:36.604Z,90.85
2019-01-09T03:27:30.051Z,90.66
2019-01-09T03:29:23.249Z,90.80
2019-01-09T03:31:16.110Z,90.59
2019-01-09T03:33:09.173Z,90.74
2019-01-09T03:35:02.651Z,90.90
2019-01-09T03:36:55.508Z,90.96
2019-01-09T03:38:48.277Z,90.92
2019-01-09T03:40:41.365Z,90.91
2019-01-09T03:42:34.264Z,90.82
2019-01-09T03:44:27.264Z,90.90
2019-01-09T03:46:20.209Z,90.84
2019-01-09T03:48:13.059Z,90.81
2019-01-09T03:50:07.718Z,90.63
2019-01-09T03:52:00.918Z,90.67
2019-01-09T03:53:54.158Z,90.45
2019-01-09T03:55:47.290Z,90.53
2019-01-09T03:57:40.311Z,90.62
2019-01-09T03:59:33.608Z,90.38
2019-01-09T04:01:27.315Z,90.43
2019-01-09T04:03:20.410Z,90.52
2019-01-09T04:05:13.409Z,90.51
2019-01-09T04:07:06.768Z,90.45
2019-01-09T04:09:00.020Z,90.48
2019-01-09T04:10:52.822Z,90.51
2019-01-09T04:12:45.541Z,90.58
2019-01-09T04:14:38.252Z,90.52
2019-01-09T04:16:33.012Z,90.70
2019-01-09T04:18:25.880Z,90.76
2019-01-09T04:20:18.864Z,90.73
2019-01-09T04:22:11.632Z,90.43
2019-01-09T04:24:04.818Z,90.39
2019-01-09T04:25:57.697Z,90.58
2019-01-09T04:27:50.629Z,90.59
2019-01-09T04:29:43.827Z,90.63
2019-01-09T04:31:37.383Z,90.37
2019-01-09T04:33:31.395Z,90.40
2019-01-09T04:35:24.534Z,90.22
2019-01-09T04:37:17.263Z,90.40
2019-01-09T04:39:10.393Z,90.46
2019-01-09T04:41:04.016Z,90.49
2019-01-09T04:42:56.842Z,90.58
2019-01-09T04:44:49.831Z,90.53
2019-01-09T04:46:44.672Z,90.53
2019-01-09T04:48:37.519Z,90.55
2019-01-09T04:50:31.125Z,90.42
2019-01-09T04:52:25.615Z,90.54
2019-01-09T04:54:18.620Z,90.65
2019-01-09T04:56:11.660Z,90.43
2019-01-09T04:58:04.795Z,90.44
2019-01-09T04:59:57.719Z,90.61
2019-01-09T05:01:52.062Z,90.57
2019-01-09T05:03:44.769Z,90.69
2019-01-09T05:05:37.970Z,90.66
2019-01-09T05:07:31.340Z,90.76
2019-01-09T05:09:24.353Z,90.77
2019-01-09T05:11:17.316Z,90.74
2019-01-09T05:15:11.521Z,90.70
2019-01-09T05:17:04.459Z,90.68
2019-01-09T05:18:57.397Z,90.83
2019-01-09T05:20:53.186Z,90.63
2019-01-09T05:22:46.296Z,90.75
2019-01-09T05:24:39.710Z,90.70
2019-01-09T05:26:32.673Z,90.75
2019-01-09T05:28:25.682Z,90.46
2019-01-09T05:30:19.276Z,90.78
2019-01-09T05:32:12.168Z,90.95
2019-01-09T05:34:05.847Z,90.84
2019-01-09T05:35:59.201Z,90.82
2019-01-09T05:37:52.124Z,90.87
2019-01-09T05:39:44.966Z,90.97
2019-01-09T05:41:37.767Z,90.94
2019-01-09T05:43:31.077Z,90.95
2019-01-09T05:45:23.884Z,90.91
2019-01-09T05:47:16.824Z,90.82
2019-01-09T05:49:10.282Z,91.11
2019-01-09T05:51:03.609Z,91.11
2019-01-09T05:52:56.374Z,91.15
2019-01-09T05:54:49.304Z,91.10
2019-01-09T05:56:42.101Z,91.05
2019-01-09T05:58:35.694Z,91.08
2019-01-09T06:00:28.699Z,91.20
2019-01-09T06:02:22.082Z,91.01
2019-01-09T06:04:15.915Z,91.13
2019-01-09T06:06:09.167Z,91.22
2019-01-09T06:08:02.028Z,91.23
2019-01-09T06:09:55.179Z,91.38
2019-01-09T06:11:48.286Z,91.42
2019-01-09T06:13:41.275Z,91.77
2019-01-09T06:15:34.085Z,91.80
2019-01-09T06:17:26.865Z,91.87
2019-01-09T06:19:20.315Z,91.49
2019-01-09T06:21:13.193Z,91.97
2019-01-09T06:23:06.174Z,92.39
2019-01-09T06:24:59.461Z,91.29
2019-01-09T06:26:53.040Z,90.47
2019-01-09T06:28:47.180Z,90.28
2019-01-09T06:30:40.101Z,91.00
2019-01-09T06:32:33.071Z,90.31
2019-01-09T06:34:26.090Z,90.59
2019-01-09T06:36:19.111Z,91.47
2019-01-09T06:38:12.179Z,89.10
2019-01-09T06:40:05.790Z,89.15
2019-01-09T06:41:58.740Z,89.08
2019-01-09T06:43:51.790Z,89.26
2019-01-09T06:45:44.633Z,89.58
2019-01-09T06:47:37.750Z,90.06
2019-01-09T06:49:30.749Z,90.24
2019-01-09T06:51:23.836Z,90.28
2019-01-09T06:53:17.392Z,90.39
2019-01-09T06:55:10.424Z,90.45
2019-01-09T06:57:03.678Z,92.17
2019-01-09T06:58:56.855Z,91.67
2019-01-09T07:00:49.616Z,91.59
2019-01-09T07:02:42.757Z,90.00
2019-01-09T07:04:35.641Z,89.91
2019-01-09T07:06:28.819Z,88.75
2019-01-09T07:08:21.456Z,88.18
2019-01-09T07:10:14.506Z,88.14
2019-01-09T07:12:07.774Z,88.03
2019-01-09T07:14:01.082Z,90.14
2019-01-09T07:15:54.389Z,88.17
2019-01-09T07:17:47.113Z,88.16
2019-01-09T07:19:40.089Z,88.66
2019-01-09T07:21:33.138Z,89.46
2019-01-09T07:23:26.611Z,89.21
2019-01-09T07:25:19.402Z,88.45
2019-01-09T07:27:12.845Z,88.36
2019-01-09T07:29:05.581Z,88.61
2019-01-09T07:30:59.388Z,88.93
2019-01-09T07:32:53.936Z,89.09
2019-01-09T07:34:46.752Z,89.33
2019-01-09T07:36:39.468Z,89.32
2019-01-09T07:38:32.479Z,89.53
2019-01-09T07:40:27.214Z,89.72
2019-01-09T07:42:20.532Z,89.77
2019-01-09T07:44:13.513Z,89.95
2019-01-09T07:46:06.984Z,90.03
2019-01-09T07:47:59.912Z,90.11
2019-01-09T07:49:53.026Z,90.13
2019-01-09T07:51:46.023Z,90.33
2019-01-09T07:53:38.895Z,90.37
2019-01-09T07:55:31.552Z,90.20
2019-01-09T07:57:24.453Z,90.04
2019-01-09T07:59:17.633Z,89.64
2019-01-09T08:01:10.647Z,89.38
2019-01-09T08:03:03.657Z,89.57
2019-01-09T08:04:56.624Z,89.46
2019-01-09T08:06:49.702Z,89.60
2019-01-09T08:08:42.824Z,89.63
2019-01-09T08:10:36.165Z,89.46
2019-01-09T08:12:28.862Z,89.63
2019-01-09T08:14:22.088Z,89.65
2019-01-09T08:16:16.757Z,89.59
2019-01-09T08:18:09.666Z,89.64
2019-01-09T08:20:02.721Z,89.55
2019-01-09T08:21:55.825Z,89.56
2019-01-09T08:23:51.755Z,89.74
2019-01-09T08:25:44.722Z,89.66
2019-01-09T08:27:37.681Z,89.31
2019-01-09T08:29:32.136Z,89.28
2019-01-09T08:31:24.938Z,89.52
2019-01-09T08:33:19.054Z,89.19
2019-01-09T08:35:12.253Z,89.19
2019-01-09T08:37:07.103Z,89.47
2019-01-09T08:39:00.142Z,89.49
2019-01-09T08:40:53.021Z,89.58
2019-01-09T08:42:46.092Z,89.71
2019-01-09T08:44:38.927Z,89.77
2019-01-09T08:46:32.217Z,89.33
2019-01-09T08:48:25.177Z,89.31
2019-01-09T08:50:17.982Z,89.37
2019-01-09T08:52:11.011Z,89.49
2019-01-09T08:54:03.991Z,89.45
2019-01-09T08:55:56.936Z,89.38
2019-01-09T08:57:49.981Z,89.27
2019-01-09T08:59:42.970Z,89.37
2019-01-09T09:01:36.181Z,89.39
2019-01-09T09:03:29.051Z,89.37
2019-01-09T09:05:22.022Z,89.34
2019-01-09T09:07:17.588Z,89.56
2019-01-09T09:09:10.894Z,89.72
2019-01-09T09:11:04.003Z,89.67
2019-01-09T09:12:57.036Z,89.76
2019-01-09T09:14:49.926Z,89.65
2019-01-09T09:16:42.703Z,89.67
2019-01-09T09:18:35.533Z,89.67
2019-01-09T09:20:28.492Z,89.83
2019-01-09T09:22:22.367Z,89.93
2019-01-09T09:24:15.296Z,89.96
2019-01-09T09:26:08.326Z,90.22
2019-01-09T09:28:01.569Z,90.13
2019-01-09T09:29:54.407Z,90.11
2019-01-09T09:31:47.676Z,90.07
2019-01-09T09:33:40.738Z,90.07
2019-01-09T09:35:33.583Z,89.92
2019-01-09T09:37:26.640Z,89.95
2019-01-09T09:39:19.741Z,89.81
2019-01-09T09:41:12.583Z,89.73
2019-01-09T09:43:05.846Z,89.65
2019-01-09T09:44:58.573Z,89.61
2019-01-09T09:46:51.888Z,89.74
2019-01-09T09:48:44.798Z,89.54
2019-01-09T09:50:37.595Z,89.51
2019-01-09T09:52:30.316Z,89.46
2019-01-09T09:54:26.494Z,89.49
2019-01-09T09:56:20.847Z,89.49
2019-01-09T09:58:14.124Z,89.42
2019-01-09T10:00:09.387Z,89.39
2019-01-09T10:02:02.325Z,89.30
2019-01-09T10:03:55.306Z,89.26
2019-01-09T10:05:48.428Z,89.16
2019-01-09T10:07:41.346Z,88.77
2019-01-09T10:09:34.014Z,88.72
2019-01-09T10:11:27.313Z,88.65
2019-01-09T10:13:21.275Z,88.50
2019-01-09T10:15:14.541Z,88.55
2019-01-09T10:17:07.325Z,88.48
2019-01-09T10:19:00.267Z,88.54
2019-01-09T10:20:54.391Z,88.21
2019-01-09T10:22:47.640Z,88.11
2019-01-09T10:24:40.803Z,87.84
2019-01-09T10:26:33.756Z,87.99
2019-01-09T10:28:27.208Z,87.94
2019-01-09T10:30:21.117Z,88.18
2019-01-09T10:32:14.078Z,87.91
2019-01-09T10:34:08.628Z,88.34
2019-01-09T10:36:01.736Z,88.26
2019-01-09T10:37:54.358Z,88.15
2019-01-09T10:39:47.586Z,88.19
2019-01-09T10:41:40.812Z,88.00
2019-01-09T10:43:34.676Z,87.88
2019-01-09T10:45:28.188Z,87.77
2019-01-09T10:47:22.788Z,87.53
2019-01-09T10:49:15.476Z,87.44
2019-01-09T10:51:08.322Z,87.65
2019-01-09T10:53:01.181Z,87.49
2019-01-09T10:54:56.104Z,87.63
2019-01-09T10:56:49.059Z,87.67
2019-01-09T10:58:41.985Z,88.03
2019-01-09T11:00:35.144Z,88.00
2019-01-09T11:02:28.272Z,88.37
2019-01-09T11:04:21.276Z,88.06
2019-01-09T11:06:14.690Z,87.83
2019-01-09T11:08:07.963Z,87.53
2019-01-09T11:10:00.867Z,87.19
2019-01-09T11:11:54.137Z,86.69
2019-01-09T11:13:47.096Z,86.54
2019-01-09T11:15:40.237Z,86.97
2019-01-09T11:17:33.322Z,86.85
2019-01-09T11:19:26.685Z,86.82
2019-01-09T11:21:19.598Z,86.84
2019-01-09T11:23:12.705Z,86.79
2019-01-09T11:25:06.553Z,86.56
2019-01-09T11:26:59.518Z,86.20
2019-01-09T11:28:52.361Z,86.56
2019-01-09T11:30:45.971Z,86.95
2019-01-09T11:32:39.302Z,88.67
2019-01-09T11:34:32.378Z,86.96
2019-01-09T11:36:25.677Z,87.09
2019-01-09T11:38:18.453Z,87.13
2019-01-09T11:40:12.921Z,86.41
2019-01-09T11:42:06.924Z,86.37
2019-01-09T11:43:59.761Z,87.85
2019-01-09T11:45:53.758Z,86.22
2019-01-09T11:47:46.432Z,85.96
2019-01-09T11:49:39.786Z,86.01
2019-01-09T11:51:32.962Z,86.33
2019-01-09T11:53:25.893Z,86.83
2019-01-09T11:55:18.746Z,86.98
2019-01-09T11:57:18.864Z,86.13
2019-01-09T11:59:21.718Z,86.36
2019-01-09T12:01:21.375Z,85.88
2019-01-09T12:03:21.707Z,85.11
2019-01-09T12:05:24.813Z,85.32
2019-01-09T12:07:25.689Z,85.48
2019-01-09T12:09:25.238Z,85.17
2019-01-09T12:11:26.408Z,85.06
2019-01-09T12:13:25.492Z,84.80
2019-01-09T12:15:28.064Z,84.71
2019-01-09T12:17:26.946Z,84.72
2019-01-09T12:19:20.737Z,84.96
2019-01-09T12:21:16.723Z,85.14
2019-01-09T12:23:09.195Z,85.33
2019-01-09T12:25:02.372Z,85.21
2019-01-09T12:26:56.168Z,85.32
2019-01-09T12:28:53.573Z,85.47
2019-01-09T12:30:43.799Z,85.91
2019-01-09T12:32:38.310Z,85.67
2019-01-09T12:34:31.597Z,85.92
2019-01-09T12:36:24.817Z,85.64
2019-01-09T12:38:17.765Z,85.90
2019-01-09T12:40:10.924Z,86.00
2019-01-09T12:42:03.797Z,86.23
2019-01-09T12:43:56.911Z,86.10
2019-01-09T12:45:49.978Z,86.02
2019-01-09T12:47:42.747Z,85.88
2019-01-09T12:49:35.746Z,85.60
2019-01-09T12:51:29.138Z,86.09
2019-01-09T12:53:23.117Z,86.57
2019-01-09T12:55:16.036Z,86.44
2019-01-09T12:57:09.389Z,86.03
2019-01-09T12:59:02.037Z,85.90
2019-01-09T13:00:54.975Z,86.16
2019-01-09T13:02:48.075Z,86.52
2019-01-09T13:04:42.656Z,86.58
2019-01-09T13:06:35.673Z,86.86
2019-01-09T13:08:28.651Z,86.90
2019-01-09T13:10:23.057Z,86.52
2019-01-09T13:12:16.156Z,86.80
2019-01-09T13:14:12.443Z,86.88
2019-01-09T13:16:11.737Z,86.58
2019-01-09T13:18:06.047Z,86.67
2019-01-09T13:19:59.397Z,87.16
2019-01-09T13:21:56.261Z,87.43
2019-01-09T13:23:50.355Z,86.96
2019-01-09T13:25:44.984Z,87.02
2019-01-09T13:27:38.133Z,86.87
2019-01-09T13:29:31.495Z,86.87
2019-01-09T13:31:24.788Z,86.63
2019-01-09T13:33:18.017Z,86.49
2019-01-09T13:35:11.636Z,86.88
2019-01-09T13:37:04.799Z,87.11
2019-01-09T13:38:58.755Z,86.92
2019-01-09T13:40:51.843Z,86.39
2019-01-09T13:42:45.115Z,86.39
2019-01-09T13:44:38.012Z,86.74
2019-01-09T13:46:31.010Z,86.66
2019-01-09T13:48:24.136Z,86.87
2019-01-09T13:50:18.820Z,86.67
2019-01-09T13:52:11.666Z,86.83
2019-01-09T13:54:06.099Z,86.73
2019-01-09T13:55:59.069Z,86.53
2019-01-09T13:57:52.595Z,86.98
2019-01-09T13:59:45.301Z,87.10
2019-01-09T14:01:38.579Z,86.61
2019-01-09T14:03:31.729Z,86.59
2019-01-09T14:05:24.914Z,86.88
2019-01-09T14:07:17.934Z,86.67
2019-01-09T14:09:12.546Z,86.99
2019-01-09T14:11:05.936Z,87.02
2019-01-09T14:13:00.193Z,86.74
2019-01-09T14:14:53.880Z,86.94
2019-01-09T14:16:47.991Z,86.88
2019-01-09T14:18:41.465Z,86.42
2019-01-09T14:20:34.762Z,86.75
2019-01-09T14:22:32.919Z,86.87
2019-01-09T14:24:22.744Z,87.13
2019-01-09T14:26:15.945Z,86.95
2019-01-09T14:28:08.882Z,86.82
2019-01-09T14:30:01.912Z,87.11
2019-01-09T14:31:55.115Z,87.22
2019-01-09T14:33:48.275Z,86.95
2019-01-09T14:35:41.644Z,87.12
2019-01-09T14:37:34.943Z,86.91
2019-01-09T14:39:27.995Z,86.98
2019-01-09T14:41:22.554Z,86.60
2019-01-09T14:43:16.414Z,86.79
2019-01-09T14:45:11.293Z,86.56
2019-01-09T14:47:05.524Z,86.73
2019-01-09T14:48:59.731Z,86.46
2019-01-09T14:50:53.957Z,86.87
2019-01-09T14:52:49.464Z,86.51
2019-01-09T14:54:43.399Z,86.51
2019-01-09T14:56:37.373Z,86.68
2019-01-09T14:58:30.544Z,86.76
2019-01-09T15:00:26.866Z,87.09
2019-01-09T15:02:19.765Z,86.74
2019-01-09T15:04:13.486Z,87.26
2019-01-09T15:06:06.524Z,87.01
2019-01-09T15:08:00.366Z,87.23
2019-01-09T15:09:56.722Z,87.29
2019-01-09T15:11:49.116Z,87.11
2019-01-09T15:13:42.642Z,86.74
2019-01-09T15:15:36.394Z,86.65
2019-01-09T15:17:30.194Z,86.03
2019-01-09T15:19:23.522Z,86.41
2019-01-09T15:21:17.434Z,86.09
2019-01-09T15:23:11.105Z,86.08
2019-01-09T15:25:06.254Z,86.08
2019-01-09T15:27:02.709Z,85.92
2019-01-09T15:28:57.200Z,86.15
2019-01-09T15:30:52.412Z,86.18
2019-01-09T15:32:47.073Z,86.30
2019-01-09T15:34:41.725Z,85.55
2019-01-09T15:36:36.435Z,85.67
2019-01-09T15:38:45.342Z,85.75
2019-01-09T15:40:40.281Z,85.98
2019-01-09T15:42:34.807Z,86.17
2019-01-09T15:44:28.776Z,86.25
2019-01-09T15:46:24.139Z,86.41
2019-01-09T15:48:19.232Z,86.15
2019-01-09T15:50:16.276Z,85.24
2019-01-09T15:52:10.434Z,85.58
2019-01-09T15:54:05.822Z,86.07
2019-01-09T15:56:00.405Z,85.62
2019-01-09T15:57:54.446Z,85.98
2019-01-09T15:59:49.734Z,85.92
2019-01-09T16:01:43.672Z,86.16
2019-01-09T16:03:43.986Z,85.75
2019-01-09T16:05:43.372Z,86.04
2019-01-09T16:07:37.685Z,86.08
2019-01-09T16:09:32.632Z,85.33
2019-01-09T16:11:27.782Z,85.75
2019-01-09T16:13:22.223Z,85.71
2019-01-09T16:15:17.755Z,85.84
2019-01-09T16:17:12.050Z,85.99
2019-01-09T16:19:05.895Z,85.70
2019-01-09T16:21:00.676Z,85.42
2019-01-09T16:22:55.422Z,85.66
2019-01-09T16:24:51.795Z,85.91
2019-01-09T16:26:47.187Z,85.04
2019-01-09T16:28:41.387Z,85.63
2019-01-09T16:30:45.158Z,85.72
2019-01-09T16:32:39.195Z,85.79
2019-01-09T16:34:33.154Z,85.92
2019-01-09T16:36:29.174Z,85.81
2019-01-09T16:38:23.203Z,85.92
2019-01-09T16:40:23.363Z,85.82
2019-01-09T16:42:13.126Z,86.43
2019-01-09T16:44:07.088Z,85.42
2019-01-09T16:46:01.009Z,85.67
2019-01-09T16:47:55.383Z,85.96
2019-01-09T16:49:49.605Z,86.04
2019-01-09T16:51:43.921Z,86.19
2019-01-09T16:53:37.903Z,85.90
2019-01-09T16:55:33.474Z,86.27
2019-01-09T16:57:27.955Z,85.96
2019-01-09T16:59:22.234Z,86.02
2019-01-09T17:01:16.745Z,85.68
2019-01-09T17:03:11.066Z,85.64
2019-01-09T17:05:04.977Z,85.73
2019-01-09T17:07:00.094Z,86.82
2019-01-09T17:08:53.994Z,86.74
2019-01-09T17:10:47.983Z,86.67
2019-01-09T17:12:42.082Z,86.26
2019-01-09T17:14:37.995Z,86.27
2019-01-09T17:16:37.681Z,86.62
2019-01-09T17:18:31.944Z,86.45
2019-01-09T17:20:26.662Z,85.80
2019-01-09T17:22:20.894Z,85.22
2019-01-09T17:24:15.134Z,84.76
2019-01-09T17:26:09.595Z,85.12
2019-01-09T17:28:03.437Z,84.76
2019-01-09T17:29:58.105Z,84.57
2019-01-09T17:31:52.365Z,84.60
2019-01-09T17:33:46.335Z,85.01
2019-01-09T17:35:40.456Z,85.60
2019-01-09T17:37:34.445Z,85.20
2019-01-09T17:39:28.502Z,84.49
2019-01-09T17:41:22.565Z,84.22
2019-01-09T17:43:16.491Z,83.96
2019-01-09T17:45:10.595Z,84.24
2019-01-09T17:47:04.582Z,84.54
2019-01-09T17:48:58.655Z,84.52
2019-01-09T17:50:53.264Z,84.41
2019-01-09T17:52:47.654Z,84.03
2019-01-09T17:54:43.784Z,84.03
2019-01-09T17:56:37.879Z,84.44
2019-01-09T17:58:32.085Z,84.31
2019-01-09T18:00:30.000Z,83.92
2019-01-09T18:02:24.494Z,84.36
2019-01-09T18:04:18.472Z,84.56
2019-01-09T18:06:12.395Z,84.39
2019-01-09T18:08:10.702Z,84.20
2019-01-09T18:10:08.100Z,84.08
2019-01-09T18:12:02.282Z,83.99
2019-01-09T18:13:59.317Z,84.39
2019-01-09T18:15:53.345Z,84.24
2019-01-09T18:17:47.354Z,83.02
2019-01-09T18:19:41.465Z,83.42
2019-01-09T18:21:35.681Z,82.90
2019-01-09T18:23:29.865Z,82.63
2019-01-09T18:25:26.034Z,82.43
2019-01-09T18:27:20.115Z,82.85
2019-01-09T18:29:14.295Z,82.98
2019-01-09T18:32:05.165Z,82.99
2019-01-09T18:34:37.624Z,82.86
2019-01-09T18:37:10.834Z,82.80
2019-01-09T18:39:57.565Z,83.20
2019-01-09T18:42:37.655Z,82.82
2019-01-09T18:45:15.715Z,82.66
2019-01-09T18:48:15.916Z,82.60
2019-01-09T18:50:56.243Z,82.35
2019-01-09T18:53:05.358Z,82.15
2019-01-09T18:55:01.035Z,82.37
2019-01-09T18:56:54.922Z,82.62
2019-01-09T18:58:52.642Z,82.48
2019-01-09T19:00:49.511Z,82.34
2019-01-09T19:02:43.564Z,82.89
2019-01-09T19:04:37.764Z,82.82
2019-01-09T19:06:35.479Z,82.91
2019-01-09T19:08:31.377Z,83.13
2019-01-09T19:10:26.634Z,83.02
2019-01-09T19:12:20.774Z,82.88
2019-01-09T19:14:14.865Z,82.21
2019-01-09T19:16:09.515Z,82.17
2019-01-09T19:18:03.445Z,82.39
2019-01-09T19:19:57.454Z,82.71
2019-01-09T19:21:51.621Z,82.54
2019-01-09T19:23:45.904Z,82.14
2019-01-09T19:25:40.153Z,82.79
2019-01-09T19:27:34.777Z,82.47
2019-01-09T19:29:29.485Z,82.11
2019-01-09T19:31:23.458Z,81.62
2019-01-09T19:33:17.425Z,81.94
2019-01-09T19:35:13.030Z,81.66
2019-01-09T19:37:09.545Z,81.38
2019-01-09T19:39:04.615Z,81.33
2019-01-09T19:40:59.760Z,81.68
2019-01-09T19:42:54.234Z,81.54
2019-01-09T19:44:48.484Z,81.32
2019-01-09T19:46:42.265Z,81.34
2019-01-09T19:48:36.573Z,81.57
2019-01-09T19:50:30.928Z,81.64
2019-01-09T19:52:25.314Z,81.67
2019-01-09T19:54:19.591Z,81.94
2019-01-09T19:56:14.785Z,82.00
2019-01-09T19:58:08.933Z,81.90
2019-01-09T20:00:03.229Z,81.56
2019-01-09T20:01:57.633Z,81.62
2019-01-09T20:03:52.003Z,81.75
2019-01-09T20:05:46.319Z,81.82
2019-01-09T20:07:40.175Z,82.01
2019-01-09T20:09:35.615Z,82.40
2019-01-09T20:11:32.195Z,82.22
2019-01-09T20:13:26.396Z,81.86
2019-01-09T20:15:24.184Z,81.89
2019-01-09T20:17:18.684Z,81.91
2019-01-09T20:19:12.905Z,82.08
2019-01-09T20:21:09.145Z,82.39
2019-01-09T20:23:05.448Z,81.14
2019-01-09T20:24:59.450Z,81.75
2019-01-09T20:26:54.813Z,81.51
2019-01-09T20:28:48.855Z,82.01
2019-01-09T20:30:42.802Z,81.87
2019-01-09T20:32:37.122Z,81.69
2019-01-09T20:34:32.603Z,82.09
2019-01-09T20:36:27.237Z,81.79
2019-01-09T20:38:22.517Z,81.72
2019-01-09T20:40:16.415Z,81.56
2019-01-09T20:42:11.604Z,81.88
2019-01-09T20:44:05.960Z,81.76
2019-01-09T20:46:00.414Z,81.97
2019-01-09T20:47:54.866Z,81.54
2019-01-09T20:49:52.135Z,81.80
2019-01-09T20:51:47.598Z,81.34
2019-01-09T20:53:41.942Z,81.53
2019-01-09T20:55:36.262Z,81.72
2019-01-09T20:57:30.335Z,81.97
2019-01-09T20:59:24.384Z,82.04
2019-01-09T21:01:21.269Z,82.26
2019-01-09T21:03:16.038Z,82.27
2019-01-09T21:05:15.963Z,82.56
2019-01-09T21:07:10.602Z,82.88
2019-01-09T21:09:04.666Z,83.17
2019-01-09T21:10:59.857Z,83.36
2019-01-09T21:12:53.951Z,83.44
2019-01-09T21:14:47.942Z,83.60
2019-01-09T21:16:42.395Z,83.80
2019-01-09T21:18:37.053Z,84.16
2019-01-09T21:20:31.652Z,84.22
2019-01-09T21:22:25.817Z,84.14
2019-01-09T21:24:19.835Z,84.11
2019-01-09T21:26:14.624Z,84.41
2019-01-09T21:28:09.835Z,84.56
2019-01-09T21:30:03.975Z,84.32
2019-01-09T21:31:58.465Z,84.30
2019-01-09T21:33:52.750Z,84.37
2019-01-09T21:35:48.132Z,84.47
2019-01-09T21:37:41.994Z,84.57
2019-01-09T21:39:36.474Z,84.52
2019-01-09T21:41:30.523Z,84.56
2019-01-09T21:43:24.926Z,84.53
2019-01-09T21:45:19.222Z,84.59
2019-01-09T21:47:14.005Z,84.72
2019-01-09T21:49:09.673Z,84.72
2019-01-09T21:51:03.803Z,84.79
2019-01-09T21:52:59.023Z,84.93
2019-01-09T21:54:54.622Z,85.08
2019-01-09T21:56:48.911Z,85.17
2019-01-09T21:58:43.387Z,85.11
2019-01-09T22:00:38.325Z,85.06
2019-01-09T22:02:32.650Z,85.16
2019-01-09T22:04:26.580Z,85.25
2019-01-09T22:06:20.514Z,85.51
2019-01-09T22:08:14.817Z,85.58
2019-01-09T22:10:15.414Z,85.47
2019-01-09T22:12:09.688Z,85.45
2019-01-09T22:14:05.013Z,85.44
2019-01-09T22:15:58.875Z,85.36
2019-01-09T22:17:53.042Z,85.00
2019-01-09T22:19:47.224Z,85.14
2019-01-09T22:21:41.387Z,85.15
2019-01-09T22:23:35.125Z,85.29
2019-01-09T22:25:29.035Z,85.27
2019-01-09T22:27:22.836Z,85.22
2019-01-09T22:29:16.744Z,84.49
2019-01-09T22:31:10.755Z,84.84
2019-01-09T22:33:04.556Z,84.91
2019-01-09T22:34:59.721Z,84.85
2019-01-09T22:36:53.445Z,84.73
2019-01-09T22:38:48.194Z,84.80
2019-01-09T22:40:41.757Z,85.00
2019-01-09T22:42:35.695Z,85.07
2019-01-09T22:44:28.867Z,84.85
2019-01-09T22:46:22.434Z,85.03
2019-01-09T22:48:15.303Z,85.13
2019-01-09T22:50:12.505Z,85.31
2019-01-09T22:52:06.242Z,85.44
2019-01-09T22:54:03.546Z,85.25
2019-01-09T22:55:57.016Z,85.48
2019-01-09T22:57:51.545Z,85.52
2019-01-09T22:59:45.804Z,85.32
2019-01-09T23:01:42.724Z,85.29
2019-01-09T23:03:38.016Z,85.48
2019-01-09T23:05:31.044Z,85.54
2019-01-09T23:07:25.055Z,85.81
2019-01-09T23:09:18.371Z,85.84
2019-01-09T23:11:11.505Z,85.91
2019-01-09T23:13:04.204Z,85.94
2019-01-09T23:14:56.985Z,86.07
2019-01-09T23:16:49.954Z,86.06
2019-01-09T23:18:42.998Z,85.79
2019-01-09T23:20:37.760Z,85.65
2019-01-09T23:22:30.917Z,85.69
2019-01-09T23:24:24.225Z,85.62
2019-01-09T23:26:17.570Z,85.69
2019-01-09T23:28:10.658Z,85.77
2019-01-09T23:30:03.875Z,85.90
2019-01-09T23:31:57.142Z,85.95
2019-01-09T23:33:50.253Z,86.03
2019-01-09T23:35:43.064Z,86.19
2019-01-09T23:37:37.737Z,86.27
2019-01-09T23:39:31.955Z,86.45
2019-01-09T23:41:25.142Z,86.20
2019-01-09T23:43:18.857Z,86.24
2019-01-09T23:45:12.788Z,86.19
2019-01-09T23:47:05.915Z,86.22
2019-01-09T23:48:59.385Z,86.21
2019-01-09T23:50:52.115Z,86.18
2019-01-09T23:52:45.187Z,86.03
2019-01-09T23:54:39.353Z,86.04
2019-01-09T23:56:32.404Z,86.09
2019-01-09T23:58:25.553Z,86.14
